Otsego, MN

9:51 AM CDT on March 28, 2015 (GMT -0500)
SE Elk River | | Change Station
CLOSE
Current Station
Personal Weather Station
Location: Elk River, MN
Elevation: 954 ft
Nearby Weather Stations

Elev 954 ft 45.32 °N, 93.53 °W | Updated 60 seconds ago

Clear
Clear
30.9 °F
Feels Like 28 °F
N
3.1
Wind Variable Wind from SE
Gusts 3.1 mph

Today
High -- | Low -- °F
--% Chance of Precip.
Yesterday
High -- | Low -- °F
Precip. -- in
7:03 AM 7:37 PM
Waxing Gibbous, 63% visible
Pressure 30.23 in
Visibility 10.0 miles
Clouds Clear
Windchill 28 °F
Dew Point 10 °F
Humidity 42%
Rainfall 0.00 in
Snow Depth Not available.
UV 2 out of 12
Pollen 1.90 out of 12
Air Quality Not available.
Flu Activity Not available.
METAR KCFE 281425Z AUTO 18006KT 10SM CLR M02/M09 A3023 RMK AO2

More Conditions Fewer Conditions

Pressure 30.23 in
Visibility 10.0 miles
Clouds Clear
Windchill 28 °F
Dew Point 10 °F
Humidity 42%
Rainfall 0.00 in
Snow Depth Not available.
UV 2 out of 12
Pollen 1.90 out of 12
Air Quality Not available.
Flu Activity Not available.
METAR KCFE 281425Z AUTO 18006KT 10SM CLR M02/M09 A3023 RMK AO2

More Conditions Fewer Conditions

10-Day Weather Forecast

Almanac

Astronomy

Mar. 28, 2015 Rise Set
Actual Time
Civil Twilight
Nautical Twilight
Astronomical Twilight
Moon
Length of Visible Light
Length of Day
Tomorrow will be .
, % of the Moon is Illuminated

Today's Extremes

State Highs State Lows

Community

WunderPhotos

Upload Photos

1,808,991 photos uploaded!

WunderBlogs® & News

Nearby

Air Quality

  Air Quality AQ Index Pollutant
Not available.

Snow Depth

Station Depth Elevation

Earthquake Activity

City Distance Mag. Time & Date
Minimum magnitude displayed is 2.5.

Coastal Water Temperatures

Place Temperature

Stations

Nearby Weather Stations

Station Location Temp. Windchill Dew Point Humidity Wind Precip. Elev Updated Type